sensor_id;sensor_type;location;lat;lon;timestamp;P1;durP1;ratioP1;P2;durP2;ratioP2
13404;SDS011;6773;51.192;7.024;2023-06-01T00:01:45;3.80;;;3.00;;
13404;SDS011;6773;51.192;7.024;2023-06-01T00:04:11;5.43;;;2.72;;
13404;SDS011;6773;51.192;7.024;2023-06-01T00:06:38;5.50;;;3.28;;
13404;SDS011;6773;51.192;7.024;2023-06-01T00:09:04;3.55;;;2.40;;
13404;SDS011;6773;51.192;7.024;2023-06-01T00:11:30;2.75;;;2.50;;
13404;SDS011;6773;51.192;7.024;2023-06-01T00:13:56;5.03;;;2.63;;
13404;SDS011;6773;51.192;7.024;2023-06-01T00:16:22;3.47;;;3.08;;
13404;SDS011;6773;51.192;7.024;2023-06-01T00:18:48;5.68;;;3.10;;
13404;SDS011;6773;51.192;7.024;2023-06-01T00:21:16;4.53;;;2.70;;
13404;SDS011;6773;51.192;7.024;2023-06-01T00:23:42;5.77;;;2.90;;
13404;SDS011;6773;51.192;7.024;2023-06-01T00:26:07;4.82;;;2.63;;
13404;SDS011;6773;51.192;7.024;2023-06-01T00:28:33;4.35;;;2.70;;
13404;SDS011;6773;51.192;7.024;2023-06-01T00:31:00;3.53;;;2.60;;
13404;SDS011;6773;51.192;7.024;2023-06-01T00:33:26;4.33;;;2.70;;
13404;SDS011;6773;51.192;7.024;2023-06-01T00:35:51;2.90;;;2.60;;
13404;SDS011;6773;51.192;7.024;2023-06-01T00:38:17;5.80;;;3.30;;
13404;SDS011;6773;51.192;7.024;2023-06-01T00:40:43;3.47;;;2.97;;
13404;SDS011;6773;51.192;7.024;2023-06-01T00:43:09;6.18;;;3.45;;
13404;SDS011;6773;51.192;7.024;2023-06-01T00:45:35;3.42;;;3.00;;
13404;SDS011;6773;51.192;7.024;2023-06-01T00:48:02;4.72;;;2.97;;
13404;SDS011;6773;51.192;7.024;2023-06-01T00:50:28;7.30;;;3.53;;
13404;SDS011;6773;51.192;7.024;2023-06-01T00:52:55;4.47;;;3.28;;
13404;SDS011;6773;51.192;7.024;2023-06-01T00:55:22;4.93;;;3.28;;
13404;SDS011;6773;51.192;7.024;2023-06-01T00:57:48;5.43;;;3.22;;
13404;SDS011;6773;51.192;7.024;2023-06-01T01:00:14;4.78;;;3.03;;
13404;SDS011;6773;51.192;7.024;2023-06-01T01:02:41;7.15;;;3.40;;
13404;SDS011;6773;51.192;7.024;2023-06-01T01:05:09;3.65;;;3.20;;
13404;SDS011;6773;51.192;7.024;2023-06-01T01:08:21;5.07;;;2.83;;
13404;SDS011;6773;51.192;7.024;2023-06-01T01:13:10;4.23;;;3.07;;
13404;SDS011;6773;51.192;7.024;2023-06-01T01:21:54;4.40;;;3.08;;
13404;SDS011;6773;51.192;7.024;2023-06-01T01:27:04;6.83;;;3.10;;
13404;SDS011;6773;51.192;7.024;2023-06-01T01:29:42;4.70;;;3.13;;
13404;SDS011;6773;51.192;7.024;2023-06-01T01:32:09;4.57;;;3.30;;
13404;SDS011;6773;51.192;7.024;2023-06-01T01:34:35;5.03;;;3.57;;
13404;SDS011;6773;51.192;7.024;2023-06-01T01:37:03;4.93;;;3.30;;
13404;SDS011;6773;51.192;7.024;2023-06-01T01:39:29;5.73;;;3.50;;
13404;SDS011;6773;51.192;7.024;2023-06-01T01:41:55;6.57;;;3.50;;
13404;SDS011;6773;51.192;7.024;2023-06-01T01:44:21;7.83;;;3.40;;
13404;SDS011;6773;51.192;7.024;2023-06-01T01:47:10;5.70;;;3.50;;
13404;SDS011;6773;51.192;7.024;2023-06-01T01:49:42;7.07;;;3.70;;
13404;SDS011;6773;51.192;7.024;2023-06-01T01:54:41;6.33;;;3.70;;
13404;SDS011;6773;51.192;7.024;2023-06-01T01:57:08;5.03;;;3.53;;
13404;SDS011;6773;51.192;7.024;2023-06-01T01:59:35;8.43;;;3.70;;
13404;SDS011;6773;51.192;7.024;2023-06-01T02:02:02;7.17;;;3.90;;
13404;SDS011;6773;51.192;7.024;2023-06-01T02:04:28;4.70;;;3.53;;
13404;SDS011;6773;51.192;7.024;2023-06-01T02:06:54;5.70;;;3.63;;
13404;SDS011;6773;51.192;7.024;2023-06-01T02:09:20;5.90;;;3.93;;
13404;SDS011;6773;51.192;7.024;2023-06-01T02:11:46;6.53;;;3.60;;
13404;SDS011;6773;51.192;7.024;2023-06-01T02:14:12;8.10;;;3.80;;
13404;SDS011;6773;51.192;7.024;2023-06-01T02:16:38;5.50;;;4.20;;
13404;SDS011;6773;51.192;7.024;2023-06-01T02:19:03;5.30;;;3.87;;
13404;SDS011;6773;51.192;7.024;2023-06-01T02:21:29;7.37;;;4.00;;
13404;SDS011;6773;51.192;7.024;2023-06-01T02:23:56;8.03;;;4.00;;
13404;SDS011;6773;51.192;7.024;2023-06-01T02:26:29;6.53;;;3.87;;
13404;SDS011;6773;51.192;7.024;2023-06-01T02:28:55;8.57;;;4.10;;
13404;SDS011;6773;51.192;7.024;2023-06-01T02:31:21;9.50;;;5.53;;
13404;SDS011;6773;51.192;7.024;2023-06-01T02:33:47;6.43;;;4.13;;
13404;SDS011;6773;51.192;7.024;2023-06-01T02:36:13;5.73;;;4.07;;
13404;SDS011;6773;51.192;7.024;2023-06-01T02:38:41;9.67;;;5.80;;
13404;SDS011;6773;51.192;7.024;2023-06-01T02:41:07;5.27;;;3.93;;
13404;SDS011;6773;51.192;7.024;2023-06-01T02:43:33;7.13;;;4.13;;
13404;SDS011;6773;51.192;7.024;2023-06-01T02:46:00;6.37;;;3.97;;
13404;SDS011;6773;51.192;7.024;2023-06-01T02:48:26;9.83;;;4.70;;
13404;SDS011;6773;51.192;7.024;2023-06-01T02:50:53;6.53;;;4.03;;
13404;SDS011;6773;51.192;7.024;2023-06-01T02:53:18;9.07;;;4.83;;
13404;SDS011;6773;51.192;7.024;2023-06-01T02:55:44;8.73;;;4.90;;
13404;SDS011;6773;51.192;7.024;2023-06-01T02:58:10;8.70;;;4.80;;
13404;SDS011;6773;51.192;7.024;2023-06-01T03:00:41;9.57;;;5.53;;
13404;SDS011;6773;51.192;7.024;2023-06-01T03:03:07;8.57;;;5.37;;
13404;SDS011;6773;51.192;7.024;2023-06-01T03:05:33;7.37;;;5.43;;
13404;SDS011;6773;51.192;7.024;2023-06-01T03:08:00;10.43;;;6.00;;
13404;SDS011;6773;51.192;7.024;2023-06-01T03:10:29;11.17;;;6.03;;
13404;SDS011;6773;51.192;7.024;2023-06-01T03:12:54;11.07;;;5.97;;
13404;SDS011;6773;51.192;7.024;2023-06-01T03:15:20;10.03;;;6.93;;
13404;SDS011;6773;51.192;7.024;2023-06-01T03:17:46;9.97;;;6.40;;
13404;SDS011;6773;51.192;7.024;2023-06-01T03:20:11;11.73;;;7.57;;
13404;SDS011;6773;51.192;7.024;2023-06-01T03:22:43;12.90;;;7.90;;
13404;SDS011;6773;51.192;7.024;2023-06-01T03:25:10;15.60;;;7.57;;
13404;SDS011;6773;51.192;7.024;2023-06-01T03:27:37;13.37;;;7.80;;
13404;SDS011;6773;51.192;7.024;2023-06-01T03:30:06;16.83;;;7.60;;
13404;SDS011;6773;51.192;7.024;2023-06-01T03:32:38;13.07;;;9.00;;
13404;SDS011;6773;51.192;7.024;2023-06-01T03:35:04;13.30;;;8.53;;
13404;SDS011;6773;51.192;7.024;2023-06-01T03:37:32;16.67;;;10.00;;
13404;SDS011;6773;51.192;7.024;2023-06-01T03:39:58;14.43;;;9.23;;
13404;SDS011;6773;51.192;7.024;2023-06-01T03:42:24;15.23;;;8.87;;
13404;SDS011;6773;51.192;7.024;2023-06-01T03:44:50;14.83;;;9.83;;
13404;SDS011;6773;51.192;7.024;2023-06-01T03:47:16;17.43;;;11.03;;
13404;SDS011;6773;51.192;7.024;2023-06-01T03:49:42;19.50;;;11.73;;
13404;SDS011;6773;51.192;7.024;2023-06-01T03:52:08;18.83;;;11.23;;
13404;SDS011;6773;51.192;7.024;2023-06-01T03:54:34;19.57;;;12.23;;
13404;SDS011;6773;51.192;7.024;2023-06-01T03:57:00;17.30;;;11.47;;
13404;SDS011;6773;51.192;7.024;2023-06-01T03:59:26;23.03;;;12.90;;
13404;SDS011;6773;51.192;7.024;2023-06-01T04:01:53;25.07;;;12.87;;
13404;SDS011;6773;51.192;7.024;2023-06-01T04:04:22;24.63;;;13.03;;
13404;SDS011;6773;51.192;7.024;2023-06-01T04:06:50;25.20;;;15.77;;
13404;SDS011;6773;51.192;7.024;2023-06-01T04:09:17;23.80;;;14.73;;
13404;SDS011;6773;51.192;7.024;2023-06-01T04:11:43;26.80;;;15.07;;
13404;SDS011;6773;51.192;7.024;2023-06-01T04:14:09;28.87;;;16.67;;
13404;SDS011;6773;51.192;7.024;2023-06-01T04:16:35;30.90;;;17.57;;
13404;SDS011;6773;51.192;7.024;2023-06-01T04:19:01;27.90;;;15.73;;
13404;SDS011;6773;51.192;7.024;2023-06-01T04:21:27;31.13;;;16.40;;
13404;SDS011;6773;51.192;7.024;2023-06-01T04:23:53;31.27;;;17.23;;
13404;SDS011;6773;51.192;7.024;2023-06-01T04:26:19;29.50;;;18.33;;
13404;SDS011;6773;51.192;7.024;2023-06-01T04:28:45;26.53;;;17.43;;
13404;SDS011;6773;51.192;7.024;2023-06-01T04:31:14;27.37;;;18.07;;
13404;SDS011;6773;51.192;7.024;2023-06-01T04:33:46;30.20;;;18.60;;
13404;SDS011;6773;51.192;7.024;2023-06-01T04:36:18;30.20;;;18.30;;
13404;SDS011;6773;51.192;7.024;2023-06-01T04:38:46;29.60;;;17.97;;
13404;SDS011;6773;51.192;7.024;2023-06-01T04:41:16;26.00;;;17.57;;
13404;SDS011;6773;51.192;7.024;2023-06-01T04:43:42;28.37;;;17.53;;
13404;SDS011;6773;51.192;7.024;2023-06-01T04:46:07;28.63;;;17.93;;
13404;SDS011;6773;51.192;7.024;2023-06-01T04:48:33;26.30;;;17.73;;
13404;SDS011;6773;51.192;7.024;2023-06-01T04:50:59;27.27;;;16.40;;
13404;SDS011;6773;51.192;7.024;2023-06-01T04:53:25;26.27;;;17.57;;
13404;SDS011;6773;51.192;7.024;2023-06-01T04:55:51;24.07;;;15.90;;
13404;SDS011;6773;51.192;7.024;2023-06-01T04:58:19;28.77;;;16.80;;
13404;SDS011;6773;51.192;7.024;2023-06-01T05:00:45;29.43;;;18.50;;
13404;SDS011;6773;51.192;7.024;2023-06-01T05:03:11;26.27;;;17.53;;
13404;SDS011;6773;51.192;7.024;2023-06-01T05:05:37;25.43;;;16.60;;
13404;SDS011;6773;51.192;7.024;2023-06-01T05:08:02;27.70;;;17.37;;
13404;SDS011;6773;51.192;7.024;2023-06-01T05:10:29;28.53;;;16.70;;
13404;SDS011;6773;51.192;7.024;2023-06-01T05:12:55;29.87;;;17.53;;
13404;SDS011;6773;51.192;7.024;2023-06-01T05:15:21;28.43;;;17.73;;
13404;SDS011;6773;51.192;7.024;2023-06-01T05:17:47;26.43;;;17.43;;
13404;SDS011;6773;51.192;7.024;2023-06-01T05:20:13;33.23;;;18.17;;
13404;SDS011;6773;51.192;7.024;2023-06-01T05:22:39;28.17;;;17.67;;
13404;SDS011;6773;51.192;7.024;2023-06-01T05:25:05;28.17;;;16.63;;
13404;SDS011;6773;51.192;7.024;2023-06-01T05:27:32;27.90;;;16.80;;
13404;SDS011;6773;51.192;7.024;2023-06-01T05:29:57;28.70;;;17.37;;
13404;SDS011;6773;51.192;7.024;2023-06-01T05:32:23;30.93;;;18.33;;
13404;SDS011;6773;51.192;7.024;2023-06-01T05:34:49;32.80;;;18.40;;
13404;SDS011;6773;51.192;7.024;2023-06-01T05:37:15;29.23;;;17.87;;
13404;SDS011;6773;51.192;7.024;2023-06-01T05:39:41;28.23;;;17.10;;
13404;SDS011;6773;51.192;7.024;2023-06-01T05:42:07;29.57;;;17.47;;
13404;SDS011;6773;51.192;7.024;2023-06-01T05:44:33;30.73;;;17.90;;
13404;SDS011;6773;51.192;7.024;2023-06-01T05:46:59;31.33;;;18.03;;
13404;SDS011;6773;51.192;7.024;2023-06-01T05:49:25;31.27;;;19.50;;
13404;SDS011;6773;51.192;7.024;2023-06-01T05:51:55;29.00;;;18.33;;
13404;SDS011;6773;51.192;7.024;2023-06-01T05:54:21;30.90;;;18.07;;
13404;SDS011;6773;51.192;7.024;2023-06-01T05:56:46;35.83;;;18.33;;
13404;SDS011;6773;51.192;7.024;2023-06-01T05:59:12;32.03;;;19.23;;
13404;SDS011;6773;51.192;7.024;2023-06-01T06:01:38;33.83;;;18.53;;
13404;SDS011;6773;51.192;7.024;2023-06-01T06:04:05;29.37;;;18.77;;
13404;SDS011;6773;51.192;7.024;2023-06-01T06:06:31;28.33;;;17.50;;
13404;SDS011;6773;51.192;7.024;2023-06-01T06:08:57;29.40;;;17.50;;
13404;SDS011;6773;51.192;7.024;2023-06-01T06:11:22;27.17;;;16.37;;
13404;SDS011;6773;51.192;7.024;2023-06-01T06:13:48;24.60;;;16.73;;
13404;SDS011;6773;51.192;7.024;2023-06-01T06:16:15;32.90;;;20.17;;
13404;SDS011;6773;51.192;7.024;2023-06-01T06:18:41;33.17;;;20.03;;
13404;SDS011;6773;51.192;7.024;2023-06-01T06:21:06;29.93;;;20.10;;
13404;SDS011;6773;51.192;7.024;2023-06-01T06:23:32;32.47;;;21.00;;
13404;SDS011;6773;51.192;7.024;2023-06-01T06:25:58;34.77;;;21.00;;
13404;SDS011;6773;51.192;7.024;2023-06-01T06:28:24;33.67;;;18.50;;
13404;SDS011;6773;51.192;7.024;2023-06-01T06:30:49;31.97;;;20.90;;
13404;SDS011;6773;51.192;7.024;2023-06-01T06:33:15;34.27;;;22.67;;
13404;SDS011;6773;51.192;7.024;2023-06-01T06:35:42;35.87;;;21.73;;
13404;SDS011;6773;51.192;7.024;2023-06-01T06:38:07;35.27;;;21.60;;
13404;SDS011;6773;51.192;7.024;2023-06-01T06:40:33;33.43;;;20.97;;
13404;SDS011;6773;51.192;7.024;2023-06-01T06:42:59;31.90;;;20.10;;
13404;SDS011;6773;51.192;7.024;2023-06-01T06:45:25;31.23;;;19.33;;
13404;SDS011;6773;51.192;7.024;2023-06-01T06:47:51;30.53;;;19.27;;
13404;SDS011;6773;51.192;7.024;2023-06-01T06:50:17;32.63;;;20.07;;
13404;SDS011;6773;51.192;7.024;2023-06-01T06:52:42;29.73;;;18.57;;
13404;SDS011;6773;51.192;7.024;2023-06-01T06:55:08;31.73;;;19.47;;
13404;SDS011;6773;51.192;7.024;2023-06-01T06:57:34;29.00;;;18.97;;
13404;SDS011;6773;51.192;7.024;2023-06-01T07:00:00;28.23;;;17.20;;
13404;SDS011;6773;51.192;7.024;2023-06-01T07:02:28;29.37;;;17.47;;
13404;SDS011;6773;51.192;7.024;2023-06-01T07:04:54;29.23;;;17.90;;
13404;SDS011;6773;51.192;7.024;2023-06-01T07:07:19;28.77;;;17.60;;
13404;SDS011;6773;51.192;7.024;2023-06-01T07:09:45;28.43;;;16.80;;
13404;SDS011;6773;51.192;7.024;2023-06-01T07:12:11;25.27;;;16.00;;
13404;SDS011;6773;51.192;7.024;2023-06-01T07:14:37;25.40;;;17.00;;
13404;SDS011;6773;51.192;7.024;2023-06-01T07:17:02;23.85;;;16.92;;
13404;SDS011;6773;51.192;7.024;2023-06-01T07:19:28;24.35;;;16.65;;
13404;SDS011;6773;51.192;7.024;2023-06-01T07:21:58;24.83;;;16.15;;
13404;SDS011;6773;51.192;7.024;2023-06-01T07:24:25;25.98;;;15.55;;
13404;SDS011;6773;51.192;7.024;2023-06-01T07:26:51;25.35;;;16.13;;
13404;SDS011;6773;51.192;7.024;2023-06-01T07:29:16;23.60;;;15.80;;
13404;SDS011;6773;51.192;7.024;2023-06-01T07:31:42;24.65;;;15.95;;
13404;SDS011;6773;51.192;7.024;2023-06-01T07:34:08;25.23;;;16.27;;
13404;SDS011;6773;51.192;7.024;2023-06-01T07:36:34;25.70;;;16.13;;
13404;SDS011;6773;51.192;7.024;2023-06-01T07:39:02;24.35;;;15.63;;
13404;SDS011;6773;51.192;7.024;2023-06-01T07:41:31;23.90;;;16.63;;
13404;SDS011;6773;51.192;7.024;2023-06-01T07:43:57;23.27;;;15.63;;
13404;SDS011;6773;51.192;7.024;2023-06-01T07:46:23;23.73;;;16.35;;
13404;SDS011;6773;51.192;7.024;2023-06-01T07:48:49;23.48;;;16.77;;
13404;SDS011;6773;51.192;7.024;2023-06-01T07:51:15;25.77;;;17.15;;
13404;SDS011;6773;51.192;7.024;2023-06-01T07:53:41;25.38;;;17.65;;
13404;SDS011;6773;51.192;7.024;2023-06-01T07:56:07;26.73;;;17.38;;
13404;SDS011;6773;51.192;7.024;2023-06-01T07:58:33;27.23;;;17.25;;
13404;SDS011;6773;51.192;7.024;2023-06-01T08:00:58;25.63;;;17.20;;
13404;SDS011;6773;51.192;7.024;2023-06-01T08:03:24;25.80;;;17.95;;
13404;SDS011;6773;51.192;7.024;2023-06-01T08:05:50;27.10;;;17.63;;
13404;SDS011;6773;51.192;7.024;2023-06-01T08:08:22;28.88;;;19.50;;
13404;SDS011;6773;51.192;7.024;2023-06-01T08:10:48;27.80;;;18.80;;
13404;SDS011;6773;51.192;7.024;2023-06-01T08:13:14;27.30;;;18.77;;
13404;SDS011;6773;51.192;7.024;2023-06-01T08:15:40;30.25;;;19.55;;
13404;SDS011;6773;51.192;7.024;2023-06-01T08:18:07;28.88;;;19.75;;
13404;SDS011;6773;51.192;7.024;2023-06-01T08:20:33;27.23;;;19.30;;
13404;SDS011;6773;51.192;7.024;2023-06-01T08:23:00;26.45;;;18.48;;
13404;SDS011;6773;51.192;7.024;2023-06-01T08:25:27;28.35;;;19.13;;
13404;SDS011;6773;51.192;7.024;2023-06-01T08:27:53;27.48;;;18.02;;
13404;SDS011;6773;51.192;7.024;2023-06-01T08:30:19;26.17;;;16.98;;
13404;SDS011;6773;51.192;7.024;2023-06-01T08:32:45;26.50;;;17.42;;
13404;SDS011;6773;51.192;7.024;2023-06-01T08:35:11;23.73;;;17.75;;
13404;SDS011;6773;51.192;7.024;2023-06-01T08:37:38;24.05;;;16.90;;
13404;SDS011;6773;51.192;7.024;2023-06-01T08:40:04;32.90;;;22.33;;
13404;SDS011;6773;51.192;7.024;2023-06-01T08:45:03;23.58;;;16.58;;
13404;SDS011;6773;51.192;7.024;2023-06-01T08:47:30;19.45;;;15.13;;
13404;SDS011;6773;51.192;7.024;2023-06-01T08:49:59;20.77;;;15.27;;
13404;SDS011;6773;51.192;7.024;2023-06-01T08:52:25;17.08;;;12.68;;
13404;SDS011;6773;51.192;7.024;2023-06-01T08:54:54;22.80;;;17.38;;
13404;SDS011;6773;51.192;7.024;2023-06-01T08:57:19;17.88;;;14.45;;
13404;SDS011;6773;51.192;7.024;2023-06-01T08:59:46;14.32;;;11.40;;
13404;SDS011;6773;51.192;7.024;2023-06-01T09:02:13;14.48;;;10.00;;
13404;SDS011;6773;51.192;7.024;2023-06-01T09:04:40;13.40;;;9.82;;
13404;SDS011;6773;51.192;7.024;2023-06-01T09:07:09;14.60;;;9.52;;
13404;SDS011;6773;51.192;7.024;2023-06-01T09:09:36;13.10;;;9.45;;
13404;SDS011;6773;51.192;7.024;2023-06-01T09:12:21;12.70;;;8.93;;
13404;SDS011;6773;51.192;7.024;2023-06-01T09:14:49;12.98;;;8.45;;
13404;SDS011;6773;51.192;7.024;2023-06-01T09:17:21;12.48;;;9.57;;
13404;SDS011;6773;51.192;7.024;2023-06-01T09:19:50;11.27;;;8.45;;
13404;SDS011;6773;51.192;7.024;2023-06-01T09:22:16;12.77;;;9.15;;
13404;SDS011;6773;51.192;7.024;2023-06-01T09:24:42;17.38;;;9.75;;
13404;SDS011;6773;51.192;7.024;2023-06-01T09:27:23;14.55;;;9.57;;
13404;SDS011;6773;51.192;7.024;2023-06-01T09:29:56;14.27;;;9.02;;
13404;SDS011;6773;51.192;7.024;2023-06-01T09:32:24;9.98;;;8.40;;
13404;SDS011;6773;51.192;7.024;2023-06-01T09:34:49;17.48;;;8.65;;
13404;SDS011;6773;51.192;7.024;2023-06-01T09:37:15;13.38;;;9.23;;
13404;SDS011;6773;51.192;7.024;2023-06-01T09:39:42;15.57;;;9.65;;
13404;SDS011;6773;51.192;7.024;2023-06-01T09:42:08;3.80;;;3.50;;
13404;SDS011;6773;51.192;7.024;2023-06-01T09:44:37;5.93;;;4.22;;
13404;SDS011;6773;51.192;7.024;2023-06-01T09:47:05;4.40;;;4.00;;
13404;SDS011;6773;51.192;7.024;2023-06-01T09:49:43;5.60;;;4.13;;
13404;SDS011;6773;51.192;7.024;2023-06-01T09:52:10;6.07;;;4.22;;
13404;SDS011;6773;51.192;7.024;2023-06-01T09:54:41;6.45;;;3.97;;
13404;SDS011;6773;51.192;7.024;2023-06-01T09:57:07;6.28;;;4.00;;
13404;SDS011;6773;51.192;7.024;2023-06-01T09:59:52;7.10;;;4.75;;
13404;SDS011;6773;51.192;7.024;2023-06-01T10:02:19;5.10;;;3.92;;
13404;SDS011;6773;51.192;7.024;2023-06-01T10:04:50;6.05;;;4.78;;
13404;SDS011;6773;51.192;7.024;2023-06-01T10:07:26;8.38;;;5.05;;
13404;SDS011;6773;51.192;7.024;2023-06-01T10:09:54;6.50;;;4.65;;
13404;SDS011;6773;51.192;7.024;2023-06-01T10:12:21;7.35;;;5.22;;
13404;SDS011;6773;51.192;7.024;2023-06-01T10:14:47;8.32;;;6.10;;
13404;SDS011;6773;51.192;7.024;2023-06-01T10:17:14;7.07;;;4.65;;
13404;SDS011;6773;51.192;7.024;2023-06-01T10:19:41;7.72;;;4.82;;
13404;SDS011;6773;51.192;7.024;2023-06-01T10:22:07;6.57;;;5.53;;
13404;SDS011;6773;51.192;7.024;2023-06-01T10:24:36;6.18;;;4.70;;
13404;SDS011;6773;51.192;7.024;2023-06-01T10:29:32;9.48;;;7.55;;
13404;SDS011;6773;51.192;7.024;2023-06-01T10:31:59;14.65;;;7.55;;
13404;SDS011;6773;51.192;7.024;2023-06-01T10:34:42;9.77;;;7.43;;
13404;SDS011;6773;51.192;7.024;2023-06-01T10:37:15;11.13;;;7.75;;
13404;SDS011;6773;51.192;7.024;2023-06-01T10:39:41;12.07;;;7.93;;
13404;SDS011;6773;51.192;7.024;2023-06-01T10:47:05;12.05;;;7.15;;
13404;SDS011;6773;51.192;7.024;2023-06-01T10:52:31;12.32;;;6.90;;
13404;SDS011;6773;51.192;7.024;2023-06-01T10:57:35;9.60;;;7.15;;
13404;SDS011;6773;51.192;7.024;2023-06-01T11:02:34;15.18;;;7.90;;
13404;SDS011;6773;51.192;7.024;2023-06-01T11:13:20;12.55;;;7.78;;
13404;SDS011;6773;51.192;7.024;2023-06-01T11:21:14;12.98;;;7.72;;
13404;SDS011;6773;51.192;7.024;2023-06-01T11:23:44;11.80;;;8.25;;
13404;SDS011;6773;51.192;7.024;2023-06-01T11:26:11;11.40;;;8.63;;
13404;SDS011;6773;51.192;7.024;2023-06-01T11:28:38;10.55;;;8.48;;
13404;SDS011;6773;51.192;7.024;2023-06-01T11:31:08;12.52;;;8.57;;
13404;SDS011;6773;51.192;7.024;2023-06-01T11:33:34;13.02;;;8.70;;
13404;SDS011;6773;51.192;7.024;2023-06-01T11:36:03;11.82;;;8.70;;
13404;SDS011;6773;51.192;7.024;2023-06-01T11:38:40;12.25;;;8.90;;
13404;SDS011;6773;51.192;7.024;2023-06-01T11:41:07;11.23;;;8.80;;
13404;SDS011;6773;51.192;7.024;2023-06-01T11:43:34;13.50;;;9.73;;
13404;SDS011;6773;51.192;7.024;2023-06-01T11:46:03;18.55;;;9.75;;
13404;SDS011;6773;51.192;7.024;2023-06-01T11:48:30;13.05;;;9.93;;
13404;SDS011;6773;51.192;7.024;2023-06-01T11:50:56;14.57;;;10.73;;
13404;SDS011;6773;51.192;7.024;2023-06-01T11:53:25;14.23;;;10.88;;
13404;SDS011;6773;51.192;7.024;2023-06-01T11:55:52;13.73;;;10.75;;
13404;SDS011;6773;51.192;7.024;2023-06-01T11:58:25;11.98;;;10.68;;
13404;SDS011;6773;51.192;7.024;2023-06-01T12:00:53;17.10;;;11.88;;
13404;SDS011;6773;51.192;7.024;2023-06-01T12:03:19;17.33;;;11.98;;
13404;SDS011;6773;51.192;7.024;2023-06-01T12:05:45;15.75;;;11.65;;
13404;SDS011;6773;51.192;7.024;2023-06-01T12:08:13;14.38;;;11.55;;
13404;SDS011;6773;51.192;7.024;2023-06-01T12:10:40;18.73;;;12.40;;
13404;SDS011;6773;51.192;7.024;2023-06-01T12:13:10;17.52;;;11.75;;
13404;SDS011;6773;51.192;7.024;2023-06-01T12:15:37;16.88;;;11.63;;
13404;SDS011;6773;51.192;7.024;2023-06-01T12:18:03;20.67;;;11.52;;
13404;SDS011;6773;51.192;7.024;2023-06-01T12:20:29;17.58;;;10.73;;
13404;SDS011;6773;51.192;7.024;2023-06-01T12:22:56;14.85;;;10.73;;
13404;SDS011;6773;51.192;7.024;2023-06-01T12:25:23;14.25;;;10.50;;
13404;SDS011;6773;51.192;7.024;2023-06-01T12:28:06;13.88;;;9.52;;
13404;SDS011;6773;51.192;7.024;2023-06-01T12:30:33;14.27;;;9.23;;
13404;SDS011;6773;51.192;7.024;2023-06-01T12:32:59;17.08;;;9.43;;
13404;SDS011;6773;51.192;7.024;2023-06-01T12:35:25;14.23;;;9.43;;
13404;SDS011;6773;51.192;7.024;2023-06-01T12:40:30;14.88;;;8.98;;
13404;SDS011;6773;51.192;7.024;2023-06-01T12:42:56;13.10;;;8.93;;
13404;SDS011;6773;51.192;7.024;2023-06-01T12:45:22;11.77;;;8.05;;
13404;SDS011;6773;51.192;7.024;2023-06-01T12:47:48;12.75;;;7.55;;
13404;SDS011;6773;51.192;7.024;2023-06-01T12:50:13;11.20;;;8.10;;
13404;SDS011;6773;51.192;7.024;2023-06-01T12:52:40;13.20;;;8.02;;
13404;SDS011;6773;51.192;7.024;2023-06-01T12:55:07;12.80;;;7.68;;
13404;SDS011;6773;51.192;7.024;2023-06-01T12:57:34;13.55;;;8.70;;
13404;SDS011;6773;51.192;7.024;2023-06-01T13:00:00;12.40;;;7.53;;
13404;SDS011;6773;51.192;7.024;2023-06-01T13:02:27;13.25;;;8.48;;
13404;SDS011;6773;51.192;7.024;2023-06-01T13:04:54;18.88;;;8.75;;
13404;SDS011;6773;51.192;7.024;2023-06-01T13:07:22;10.73;;;8.57;;
13404;SDS011;6773;51.192;7.024;2023-06-01T13:09:48;17.58;;;9.68;;
13404;SDS011;6773;51.192;7.024;2023-06-01T13:12:14;11.90;;;8.52;;
13404;SDS011;6773;51.192;7.024;2023-06-01T13:14:40;14.40;;;8.80;;
13404;SDS011;6773;51.192;7.024;2023-06-01T13:17:05;12.52;;;8.43;;
13404;SDS011;6773;51.192;7.024;2023-06-01T13:19:32;14.68;;;8.27;;
13404;SDS011;6773;51.192;7.024;2023-06-01T13:21:57;14.82;;;8.40;;
13404;SDS011;6773;51.192;7.024;2023-06-01T13:24:23;13.40;;;9.15;;
13404;SDS011;6773;51.192;7.024;2023-06-01T13:26:49;10.40;;;7.72;;
13404;SDS011;6773;51.192;7.024;2023-06-01T13:29:15;11.65;;;7.75;;
13404;SDS011;6773;51.192;7.024;2023-06-01T13:31:42;11.77;;;7.75;;
13404;SDS011;6773;51.192;7.024;2023-06-01T13:34:08;13.13;;;7.55;;
13404;SDS011;6773;51.192;7.024;2023-06-01T13:36:33;13.75;;;7.35;;
13404;SDS011;6773;51.192;7.024;2023-06-01T13:39:00;14.25;;;7.47;;
13404;SDS011;6773;51.192;7.024;2023-06-01T13:41:26;12.55;;;6.93;;
13404;SDS011;6773;51.192;7.024;2023-06-01T13:43:51;13.77;;;7.75;;
13404;SDS011;6773;51.192;7.024;2023-06-01T13:46:17;13.02;;;8.43;;
13404;SDS011;6773;51.192;7.024;2023-06-01T13:48:43;14.75;;;7.30;;
13404;SDS011;6773;51.192;7.024;2023-06-01T13:51:09;11.75;;;6.57;;
13404;SDS011;6773;51.192;7.024;2023-06-01T13:53:35;10.40;;;7.00;;
13404;SDS011;6773;51.192;7.024;2023-06-01T13:56:00;12.60;;;6.80;;
13404;SDS011;6773;51.192;7.024;2023-06-01T13:58:27;7.53;;;6.15;;
13404;SDS011;6773;51.192;7.024;2023-06-01T14:00:53;8.95;;;6.95;;
13404;SDS011;6773;51.192;7.024;2023-06-01T14:03:19;10.98;;;6.43;;
13404;SDS011;6773;51.192;7.024;2023-06-01T14:05:45;9.60;;;6.45;;
13404;SDS011;6773;51.192;7.024;2023-06-01T14:08:11;9.88;;;6.07;;
13404;SDS011;6773;51.192;7.024;2023-06-01T14:10:36;11.45;;;6.45;;
13404;SDS011;6773;51.192;7.024;2023-06-01T14:13:02;10.07;;;6.20;;
13404;SDS011;6773;51.192;7.024;2023-06-01T14:15:28;8.13;;;5.53;;
13404;SDS011;6773;51.192;7.024;2023-06-01T14:17:53;10.35;;;5.95;;
13404;SDS011;6773;51.192;7.024;2023-06-01T14:20:20;11.15;;;6.43;;
13404;SDS011;6773;51.192;7.024;2023-06-01T14:22:46;12.10;;;5.93;;
13404;SDS011;6773;51.192;7.024;2023-06-01T14:25:12;9.32;;;6.05;;
13404;SDS011;6773;51.192;7.024;2023-06-01T14:27:38;10.27;;;5.93;;
13404;SDS011;6773;51.192;7.024;2023-06-01T14:30:05;10.52;;;5.75;;
13404;SDS011;6773;51.192;7.024;2023-06-01T14:32:31;8.35;;;5.68;;
13404;SDS011;6773;51.192;7.024;2023-06-01T14:34:57;8.88;;;6.15;;
13404;SDS011;6773;51.192;7.024;2023-06-01T14:37:23;8.55;;;5.55;;
13404;SDS011;6773;51.192;7.024;2023-06-01T14:39:48;7.90;;;5.75;;
13404;SDS011;6773;51.192;7.024;2023-06-01T14:42:15;11.07;;;5.70;;
13404;SDS011;6773;51.192;7.024;2023-06-01T14:44:41;12.10;;;6.00;;
13404;SDS011;6773;51.192;7.024;2023-06-01T14:47:07;8.98;;;5.95;;
13404;SDS011;6773;51.192;7.024;2023-06-01T14:49:33;9.02;;;5.55;;
13404;SDS011;6773;51.192;7.024;2023-06-01T14:51:59;10.10;;;6.55;;
13404;SDS011;6773;51.192;7.024;2023-06-01T14:54:25;9.55;;;5.97;;
13404;SDS011;6773;51.192;7.024;2023-06-01T14:56:51;10.05;;;6.70;;
13404;SDS011;6773;51.192;7.024;2023-06-01T14:59:17;8.80;;;5.90;;
13404;SDS011;6773;51.192;7.024;2023-06-01T15:01:43;6.90;;;5.55;;
13404;SDS011;6773;51.192;7.024;2023-06-01T15:04:09;9.38;;;5.95;;
13404;SDS011;6773;51.192;7.024;2023-06-01T15:06:35;6.70;;;5.53;;
13404;SDS011;6773;51.192;7.024;2023-06-01T15:09:02;8.40;;;6.32;;
13404;SDS011;6773;51.192;7.024;2023-06-01T15:11:28;10.05;;;5.68;;
13404;SDS011;6773;51.192;7.024;2023-06-01T15:13:54;8.13;;;5.38;;
13404;SDS011;6773;51.192;7.024;2023-06-01T15:16:20;9.70;;;5.75;;
13404;SDS011;6773;51.192;7.024;2023-06-01T15:18:46;9.90;;;6.05;;
13404;SDS011;6773;51.192;7.024;2023-06-01T15:21:11;7.70;;;5.32;;
13404;SDS011;6773;51.192;7.024;2023-06-01T15:23:37;7.88;;;5.15;;
13404;SDS011;6773;51.192;7.024;2023-06-01T15:26:03;7.50;;;5.20;;
13404;SDS011;6773;51.192;7.024;2023-06-01T15:28:29;8.60;;;5.95;;
13404;SDS011;6773;51.192;7.024;2023-06-01T15:30:55;7.22;;;5.82;;
13404;SDS011;6773;51.192;7.024;2023-06-01T15:33:21;8.13;;;5.50;;
13404;SDS011;6773;51.192;7.024;2023-06-01T15:35:46;9.05;;;6.05;;